sensor_id;sensor_type;location;lat;lon;timestamp;temperature;humidity
75170;SHT31;63749;49.186;9.222;2023-04-25T00:01:37;9.43;82.37
75170;SHT31;63749;49.186;9.222;2023-04-25T00:04:03;9.35;82.75
75170;SHT31;63749;49.186;9.222;2023-04-25T00:06:31;9.44;82.56
75170;SHT31;63749;49.186;9.222;2023-04-25T00:08:57;9.41;83.01
75170;SHT31;63749;49.186;9.222;2023-04-25T00:11:23;9.41;82.93
75170;SHT31;63749;49.186;9.222;2023-04-25T00:13:48;9.44;82.57
75170;SHT31;63749;49.186;9.222;2023-04-25T00:16:16;9.44;83.03
75170;SHT31;63749;49.186;9.222;2023-04-25T00:18:42;9.47;82.74
75170;SHT31;63749;49.186;9.222;2023-04-25T00:21:08;9.51;82.20
75170;SHT31;63749;49.186;9.222;2023-04-25T00:23:33;9.52;81.68
75170;SHT31;63749;49.186;9.222;2023-04-25T00:26:01;9.54;81.54
75170;SHT31;63749;49.186;9.222;2023-04-25T00:28:27;9.51;82.02
75170;SHT31;63749;49.186;9.222;2023-04-25T00:30:52;9.51;79.91
75170;SHT31;63749;49.186;9.222;2023-04-25T00:33:18;9.51;80.64
75170;SHT31;63749;49.186;9.222;2023-04-25T00:35:43;9.48;80.88
75170;SHT31;63749;49.186;9.222;2023-04-25T00:38:08;9.48;79.84
75170;SHT31;63749;49.186;9.222;2023-04-25T00:40:34;9.44;79.63
75170;SHT31;63749;49.186;9.222;2023-04-25T00:43:00;9.38;79.62
75170;SHT31;63749;49.186;9.222;2023-04-25T00:45:29;9.35;79.43
75170;SHT31;63749;49.186;9.222;2023-04-25T00:47:55;9.34;79.51
75170;SHT31;63749;49.186;9.222;2023-04-25T00:50:21;9.30;79.97
75170;SHT31;63749;49.186;9.222;2023-04-25T00:52:47;9.24;79.47
75170;SHT31;63749;49.186;9.222;2023-04-25T00:55:13;9.23;79.94
75170;SHT31;63749;49.186;9.222;2023-04-25T00:57:38;9.22;80.14
75170;SHT31;63749;49.186;9.222;2023-04-25T01:00:05;9.20;80.38
75170;SHT31;63749;49.186;9.222;2023-04-25T01:02:33;9.19;80.22
75170;SHT31;63749;49.186;9.222;2023-04-25T01:04:58;9.19;80.29
75170;SHT31;63749;49.186;9.222;2023-04-25T01:07:24;9.10;80.54
75170;SHT31;63749;49.186;9.222;2023-04-25T01:09:51;9.14;80.77
75170;SHT31;63749;49.186;9.222;2023-04-25T01:12:17;9.09;81.27
75170;SHT31;63749;49.186;9.222;2023-04-25T01:14:42;9.12;80.97
75170;SHT31;63749;49.186;9.222;2023-04-25T01:17:08;9.07;81.32
75170;SHT31;63749;49.186;9.222;2023-04-25T01:19:34;8.99;81.68
75170;SHT31;63749;49.186;9.222;2023-04-25T01:22:00;8.97;81.93
75170;SHT31;63749;49.186;9.222;2023-04-25T01:24:26;9.04;81.63
75170;SHT31;63749;49.186;9.222;2023-04-25T01:26:52;9.02;82.16
75170;SHT31;63749;49.186;9.222;2023-04-25T01:29:19;9.02;82.25
75170;SHT31;63749;49.186;9.222;2023-04-25T01:31:45;8.97;82.49
75170;SHT31;63749;49.186;9.222;2023-04-25T01:34:11;8.90;82.76
75170;SHT31;63749;49.186;9.222;2023-04-25T01:36:37;8.94;82.62
75170;SHT31;63749;49.186;9.222;2023-04-25T01:39:02;8.86;83.13
75170;SHT31;63749;49.186;9.222;2023-04-25T01:41:28;8.90;83.06
75170;SHT31;63749;49.186;9.222;2023-04-25T01:43:54;8.86;82.82
75170;SHT31;63749;49.186;9.222;2023-04-25T01:46:20;8.82;82.91
75170;SHT31;63749;49.186;9.222;2023-04-25T01:48:46;8.93;82.77
75170;SHT31;63749;49.186;9.222;2023-04-25T01:51:11;8.82;83.27
75170;SHT31;63749;49.186;9.222;2023-04-25T01:53:37;8.75;83.39
75170;SHT31;63749;49.186;9.222;2023-04-25T01:56:03;8.82;83.11
75170;SHT31;63749;49.186;9.222;2023-04-25T01:58:29;8.79;83.36
75170;SHT31;63749;49.186;9.222;2023-04-25T02:00:54;8.75;83.54
75170;SHT31;63749;49.186;9.222;2023-04-25T02:03:20;8.75;83.26
75170;SHT31;63749;49.186;9.222;2023-04-25T02:05:45;8.68;83.64
75170;SHT31;63749;49.186;9.222;2023-04-25T02:08:10;8.58;83.85
75170;SHT31;63749;49.186;9.222;2023-04-25T02:10:36;8.59;83.94
75170;SHT31;63749;49.186;9.222;2023-04-25T02:13:02;8.66;83.62
75170;SHT31;63749;49.186;9.222;2023-04-25T02:15:28;8.65;83.88
75170;SHT31;63749;49.186;9.222;2023-04-25T02:17:54;8.66;83.80
75170;SHT31;63749;49.186;9.222;2023-04-25T02:20:23;8.71;83.82
75170;SHT31;63749;49.186;9.222;2023-04-25T02:22:49;8.71;83.85
75170;SHT31;63749;49.186;9.222;2023-04-25T02:25:14;8.76;83.82
75170;SHT31;63749;49.186;9.222;2023-04-25T02:27:41;8.73;83.71
75170;SHT31;63749;49.186;9.222;2023-04-25T02:30:07;8.76;83.60
75170;SHT31;63749;49.186;9.222;2023-04-25T02:32:33;8.80;83.65
75170;SHT31;63749;49.186;9.222;2023-04-25T02:34:59;8.80;83.56
75170;SHT31;63749;49.186;9.222;2023-04-25T02:37:31;8.79;83.38
75170;SHT31;63749;49.186;9.222;2023-04-25T02:39:57;8.80;83.58
75170;SHT31;63749;49.186;9.222;2023-04-25T02:42:22;8.77;83.48
75170;SHT31;63749;49.186;9.222;2023-04-25T02:44:47;8.79;83.12
75170;SHT31;63749;49.186;9.222;2023-04-25T02:47:13;8.84;82.68
75170;SHT31;63749;49.186;9.222;2023-04-25T02:49:38;8.82;83.17
75170;SHT31;63749;49.186;9.222;2023-04-25T02:52:03;8.80;83.24
75170;SHT31;63749;49.186;9.222;2023-04-25T02:54:29;8.80;83.24
75170;SHT31;63749;49.186;9.222;2023-04-25T02:56:55;8.80;83.38
75170;SHT31;63749;49.186;9.222;2023-04-25T02:59:20;8.76;83.43
75170;SHT31;63749;49.186;9.222;2023-04-25T03:01:46;8.76;83.71
75170;SHT31;63749;49.186;9.222;2023-04-25T03:04:11;8.77;83.70
75170;SHT31;63749;49.186;9.222;2023-04-25T03:06:36;8.87;82.93
75170;SHT31;63749;49.186;9.222;2023-04-25T03:09:02;8.92;82.77
75170;SHT31;63749;49.186;9.222;2023-04-25T03:11:27;8.90;82.38
75170;SHT31;63749;49.186;9.222;2023-04-25T03:13:52;8.92;82.61
75170;SHT31;63749;49.186;9.222;2023-04-25T03:16:18;8.90;82.49
75170;SHT31;63749;49.186;9.222;2023-04-25T03:18:43;8.82;82.92
75170;SHT31;63749;49.186;9.222;2023-04-25T03:21:08;8.77;83.31
75170;SHT31;63749;49.186;9.222;2023-04-25T03:23:34;8.79;82.98
75170;SHT31;63749;49.186;9.222;2023-04-25T03:25:59;8.82;83.10
75170;SHT31;63749;49.186;9.222;2023-04-25T03:28:25;8.79;83.58
75170;SHT31;63749;49.186;9.222;2023-04-25T03:30:50;8.79;83.58
75170;SHT31;63749;49.186;9.222;2023-04-25T03:33:15;8.69;84.15
75170;SHT31;63749;49.186;9.222;2023-04-25T03:35:41;8.75;83.88
75170;SHT31;63749;49.186;9.222;2023-04-25T03:38:07;8.66;84.30
75170;SHT31;63749;49.186;9.222;2023-04-25T03:40:33;8.59;84.55
75170;SHT31;63749;49.186;9.222;2023-04-25T03:42:58;8.59;84.28
75170;SHT31;63749;49.186;9.222;2023-04-25T03:45:23;8.52;84.81
75170;SHT31;63749;49.186;9.222;2023-04-25T03:47:49;8.52;84.66
75170;SHT31;63749;49.186;9.222;2023-04-25T03:50:15;8.54;84.40
75170;SHT31;63749;49.186;9.222;2023-04-25T03:52:40;8.56;84.57
75170;SHT31;63749;49.186;9.222;2023-04-25T03:55:06;8.58;84.97
75170;SHT31;63749;49.186;9.222;2023-04-25T03:57:31;8.48;85.24
75170;SHT31;63749;49.186;9.222;2023-04-25T03:59:56;8.46;85.92
75170;SHT31;63749;49.186;9.222;2023-04-25T04:02:22;8.55;85.62
75170;SHT31;63749;49.186;9.222;2023-04-25T04:04:47;8.51;85.60
75170;SHT31;63749;49.186;9.222;2023-04-25T04:07:12;8.49;85.99
75170;SHT31;63749;49.186;9.222;2023-04-25T04:09:38;8.44;86.36
75170;SHT31;63749;49.186;9.222;2023-04-25T04:12:03;8.38;87.08
75170;SHT31;63749;49.186;9.222;2023-04-25T04:14:29;8.41;86.79
75170;SHT31;63749;49.186;9.222;2023-04-25T04:16:54;8.38;86.84
75170;SHT31;63749;49.186;9.222;2023-04-25T04:19:19;8.33;86.81
75170;SHT31;63749;49.186;9.222;2023-04-25T04:21:45;8.28;87.24
75170;SHT31;63749;49.186;9.222;2023-04-25T04:24:10;8.31;87.16
75170;SHT31;63749;49.186;9.222;2023-04-25T04:26:36;8.30;87.82
75170;SHT31;63749;49.186;9.222;2023-04-25T04:29:02;8.20;88.58
75170;SHT31;63749;49.186;9.222;2023-04-25T04:31:28;8.15;89.06
75170;SHT31;63749;49.186;9.222;2023-04-25T04:33:53;8.10;88.99
75170;SHT31;63749;49.186;9.222;2023-04-25T04:36:19;8.08;88.99
75170;SHT31;63749;49.186;9.222;2023-04-25T04:38:48;8.05;89.81
75170;SHT31;63749;49.186;9.222;2023-04-25T04:41:13;7.98;89.54
75170;SHT31;63749;49.186;9.222;2023-04-25T04:43:39;8.00;90.06
75170;SHT31;63749;49.186;9.222;2023-04-25T04:46:05;8.00;90.09
75170;SHT31;63749;49.186;9.222;2023-04-25T04:48:33;7.98;89.92
75170;SHT31;63749;49.186;9.222;2023-04-25T04:50:59;8.04;89.89
75170;SHT31;63749;49.186;9.222;2023-04-25T04:53:25;8.10;89.87
75170;SHT31;63749;49.186;9.222;2023-04-25T04:55:50;8.11;90.10
75170;SHT31;63749;49.186;9.222;2023-04-25T04:58:16;8.11;90.37
75170;SHT31;63749;49.186;9.222;2023-04-25T05:00:41;8.18;90.09
75170;SHT31;63749;49.186;9.222;2023-04-25T05:03:07;8.08;90.50
75170;SHT31;63749;49.186;9.222;2023-04-25T05:05:32;8.11;90.75
75170;SHT31;63749;49.186;9.222;2023-04-25T05:07:58;8.13;91.04
75170;SHT31;63749;49.186;9.222;2023-04-25T05:10:23;8.07;90.78
75170;SHT31;63749;49.186;9.222;2023-04-25T05:12:48;8.11;90.59
75170;SHT31;63749;49.186;9.222;2023-04-25T05:15:14;8.05;90.79
75170;SHT31;63749;49.186;9.222;2023-04-25T05:17:39;8.05;91.46
75170;SHT31;63749;49.186;9.222;2023-04-25T05:20:08;8.04;90.93
75170;SHT31;63749;49.186;9.222;2023-04-25T05:22:36;8.10;90.82
75170;SHT31;63749;49.186;9.222;2023-04-25T05:25:02;8.13;90.35
75170;SHT31;63749;49.186;9.222;2023-04-25T05:27:28;8.13;90.26
75170;SHT31;63749;49.186;9.222;2023-04-25T05:29:54;8.18;90.11
75170;SHT31;63749;49.186;9.222;2023-04-25T05:32:19;8.20;89.73
75170;SHT31;63749;49.186;9.222;2023-04-25T05:34:45;8.20;89.69
75170;SHT31;63749;49.186;9.222;2023-04-25T05:37:10;8.20;89.51
75170;SHT31;63749;49.186;9.222;2023-04-25T05:39:35;8.24;89.93
75170;SHT31;63749;49.186;9.222;2023-04-25T05:42:01;8.18;90.07
75170;SHT31;63749;49.186;9.222;2023-04-25T05:44:26;8.18;90.01
75170;SHT31;63749;49.186;9.222;2023-04-25T05:46:52;8.18;89.51
75170;SHT31;63749;49.186;9.222;2023-04-25T05:49:17;8.17;89.85
75170;SHT31;63749;49.186;9.222;2023-04-25T05:51:42;8.20;89.96
75170;SHT31;63749;49.186;9.222;2023-04-25T05:54:08;8.25;89.83
75170;SHT31;63749;49.186;9.222;2023-04-25T05:56:33;8.23;89.36
75170;SHT31;63749;49.186;9.222;2023-04-25T05:58:58;8.23;89.33
75170;SHT31;63749;49.186;9.222;2023-04-25T06:01:24;8.24;90.28
75170;SHT31;63749;49.186;9.222;2023-04-25T06:03:49;8.27;90.29
75170;SHT31;63749;49.186;9.222;2023-04-25T06:06:16;8.28;89.49
75170;SHT31;63749;49.186;9.222;2023-04-25T06:08:41;8.33;89.38
75170;SHT31;63749;49.186;9.222;2023-04-25T06:11:07;8.40;89.23
75170;SHT31;63749;49.186;9.222;2023-04-25T06:13:32;8.49;89.29
75170;SHT31;63749;49.186;9.222;2023-04-25T06:15:58;8.58;88.71
75170;SHT31;63749;49.186;9.222;2023-04-25T06:18:23;8.65;88.22
75170;SHT31;63749;49.186;9.222;2023-04-25T06:20:48;8.82;87.23
75170;SHT31;63749;49.186;9.222;2023-04-25T06:23:14;9.04;87.18
75170;SHT31;63749;49.186;9.222;2023-04-25T06:25:39;9.19;86.83
75170;SHT31;63749;49.186;9.222;2023-04-25T06:28:05;9.20;85.98
75170;SHT31;63749;49.186;9.222;2023-04-25T06:30:30;9.26;86.60
75170;SHT31;63749;49.186;9.222;2023-04-25T06:32:56;9.34;86.15
75170;SHT31;63749;49.186;9.222;2023-04-25T06:35:21;9.33;85.72
75170;SHT31;63749;49.186;9.222;2023-04-25T06:37:47;9.37;86.02
75170;SHT31;63749;49.186;9.222;2023-04-25T06:40:12;9.41;85.78
75170;SHT31;63749;49.186;9.222;2023-04-25T06:42:37;9.40;85.59
75170;SHT31;63749;49.186;9.222;2023-04-25T06:45:03;9.44;85.50
75170;SHT31;63749;49.186;9.222;2023-04-25T06:47:28;9.48;84.91
75170;SHT31;63749;49.186;9.222;2023-04-25T06:49:55;9.54;85.00
75170;SHT31;63749;49.186;9.222;2023-04-25T06:52:20;9.57;84.91
75170;SHT31;63749;49.186;9.222;2023-04-25T06:54:46;9.54;84.78
75170;SHT31;63749;49.186;9.222;2023-04-25T06:57:11;9.55;84.56
75170;SHT31;63749;49.186;9.222;2023-04-25T06:59:37;9.67;84.43
75170;SHT31;63749;49.186;9.222;2023-04-25T07:02:02;9.81;84.11
75170;SHT31;63749;49.186;9.222;2023-04-25T07:04:28;9.98;83.55
75170;SHT31;63749;49.186;9.222;2023-04-25T07:06:54;10.12;82.32
75170;SHT31;63749;49.186;9.222;2023-04-25T07:09:20;10.28;81.95
75170;SHT31;63749;49.186;9.222;2023-04-25T07:11:45;10.26;81.82
75170;SHT31;63749;49.186;9.222;2023-04-25T07:14:10;10.29;81.35
75170;SHT31;63749;49.186;9.222;2023-04-25T07:16:36;10.43;81.23
75170;SHT31;63749;49.186;9.222;2023-04-25T07:19:01;10.40;80.94
75170;SHT31;63749;49.186;9.222;2023-04-25T07:21:26;10.43;80.83
75170;SHT31;63749;49.186;9.222;2023-04-25T07:23:52;10.53;79.74
75170;SHT31;63749;49.186;9.222;2023-04-25T07:26:17;10.34;78.74
75170;SHT31;63749;49.186;9.222;2023-04-25T07:28:42;10.39;79.70
75170;SHT31;63749;49.186;9.222;2023-04-25T07:31:08;10.44;80.43
75170;SHT31;63749;49.186;9.222;2023-04-25T07:33:34;10.41;80.84
75170;SHT31;63749;49.186;9.222;2023-04-25T07:36:00;10.32;80.52
75170;SHT31;63749;49.186;9.222;2023-04-25T07:38:25;10.37;80.64
75170;SHT31;63749;49.186;9.222;2023-04-25T07:40:51;10.37;79.93
75170;SHT31;63749;49.186;9.222;2023-04-25T07:43:16;10.41;79.61
75170;SHT31;63749;49.186;9.222;2023-04-25T07:45:42;10.40;79.71
75170;SHT31;63749;49.186;9.222;2023-04-25T07:48:08;10.41;79.82
75170;SHT31;63749;49.186;9.222;2023-04-25T07:50:33;10.47;78.32
75170;SHT31;63749;49.186;9.222;2023-04-25T07:52:58;10.47;78.42
75170;SHT31;63749;49.186;9.222;2023-04-25T07:55:24;10.43;78.73
75170;SHT31;63749;49.186;9.222;2023-04-25T07:57:49;10.39;78.96
75170;SHT31;63749;49.186;9.222;2023-04-25T08:00:15;10.44;78.97
75170;SHT31;63749;49.186;9.222;2023-04-25T08:02:40;10.44;77.72
75170;SHT31;63749;49.186;9.222;2023-04-25T08:05:06;10.53;77.44
75170;SHT31;63749;49.186;9.222;2023-04-25T08:07:33;10.49;77.78
75170;SHT31;63749;49.186;9.222;2023-04-25T08:09:59;10.59;76.97
75170;SHT31;63749;49.186;9.222;2023-04-25T08:12:24;10.63;76.71
75170;SHT31;63749;49.186;9.222;2023-04-25T08:14:50;10.57;77.00
75170;SHT31;63749;49.186;9.222;2023-04-25T08:17:15;10.65;76.16
75170;SHT31;63749;49.186;9.222;2023-04-25T08:19:41;10.78;76.68
75170;SHT31;63749;49.186;9.222;2023-04-25T08:22:06;10.85;75.83
75170;SHT31;63749;49.186;9.222;2023-04-25T08:24:32;10.90;75.61
75170;SHT31;63749;49.186;9.222;2023-04-25T08:26:57;10.85;75.19
75170;SHT31;63749;49.186;9.222;2023-04-25T08:29:24;10.77;76.41
75170;SHT31;63749;49.186;9.222;2023-04-25T08:31:50;10.97;76.81
75170;SHT31;63749;49.186;9.222;2023-04-25T08:34:17;11.19;75.71
75170;SHT31;63749;49.186;9.222;2023-04-25T08:36:43;11.35;74.69
75170;SHT31;63749;49.186;9.222;2023-04-25T08:39:08;11.36;74.18
75170;SHT31;63749;49.186;9.222;2023-04-25T08:41:38;11.58;73.58
75170;SHT31;63749;49.186;9.222;2023-04-25T08:44:09;11.55;73.59
75170;SHT31;63749;49.186;9.222;2023-04-25T08:46:37;11.39;73.74
75170;SHT31;63749;49.186;9.222;2023-04-25T08:49:03;11.73;72.42
75170;SHT31;63749;49.186;9.222;2023-04-25T08:51:31;11.49;73.36
75170;SHT31;63749;49.186;9.222;2023-04-25T08:54:08;11.46;73.07
75170;SHT31;63749;49.186;9.222;2023-04-25T08:56:34;11.22;73.85
75170;SHT31;63749;49.186;9.222;2023-04-25T08:59:01;10.88;74.18
75170;SHT31;63749;49.186;9.222;2023-04-25T09:01:27;10.64;74.74
75170;SHT31;63749;49.186;9.222;2023-04-25T09:03:52;10.28;74.59
75170;SHT31;63749;49.186;9.222;2023-04-25T09:06:19;10.03;73.61
75170;SHT31;63749;49.186;9.222;2023-04-25T09:08:45;9.93;74.11
75170;SHT31;63749;49.186;9.222;2023-04-25T09:11:12;9.79;74.93
75170;SHT31;63749;49.186;9.222;2023-04-25T09:13:38;9.78;76.32
75170;SHT31;63749;49.186;9.222;2023-04-25T09:16:03;9.68;78.53
75170;SHT31;63749;49.186;9.222;2023-04-25T09:18:31;9.59;80.18
75170;SHT31;63749;49.186;9.222;2023-04-25T09:21:08;9.82;78.96
75170;SHT31;63749;49.186;9.222;2023-04-25T09:23:44;9.67;79.22
75170;SHT31;63749;49.186;9.222;2023-04-25T09:26:13;9.98;78.32
75170;SHT31;63749;49.186;9.222;2023-04-25T09:28:39;10.34;79.01
75170;SHT31;63749;49.186;9.222;2023-04-25T09:31:05;10.56;75.72
75170;SHT31;63749;49.186;9.222;2023-04-25T09:33:32;10.63;76.33
75170;SHT31;63749;49.186;9.222;2023-04-25T09:36:06;11.14;74.54
75170;SHT31;63749;49.186;9.222;2023-04-25T09:38:39;11.32;74.47
75170;SHT31;63749;49.186;9.222;2023-04-25T09:41:06;11.47;73.29
75170;SHT31;63749;49.186;9.222;2023-04-25T09:43:32;11.59;73.16
75170;SHT31;63749;49.186;9.222;2023-04-25T09:45:57;11.69;71.35
75170;SHT31;63749;49.186;9.222;2023-04-25T09:48:26;12.01;69.94
75170;SHT31;63749;49.186;9.222;2023-04-25T09:53:37;12.58;68.79
75170;SHT31;63749;49.186;9.222;2023-04-25T09:56:07;12.70;69.39
75170;SHT31;63749;49.186;9.222;2023-04-25T09:58:34;13.03;69.11
75170;SHT31;63749;49.186;9.222;2023-04-25T10:01:03;13.28;67.81
75170;SHT31;63749;49.186;9.222;2023-04-25T10:03:33;13.59;65.78
75170;SHT31;63749;49.186;9.222;2023-04-25T10:06:01;13.79;61.62
75170;SHT31;63749;49.186;9.222;2023-04-25T10:08:35;13.76;62.06
75170;SHT31;63749;49.186;9.222;2023-04-25T10:11:04;13.85;62.80
75170;SHT31;63749;49.186;9.222;2023-04-25T10:13:31;13.68;63.03
75170;SHT31;63749;49.186;9.222;2023-04-25T10:15:59;13.44;62.39
75170;SHT31;63749;49.186;9.222;2023-04-25T10:18:28;12.99;63.15
75170;SHT31;63749;49.186;9.222;2023-04-25T10:21:01;13.16;64.03
75170;SHT31;63749;49.186;9.222;2023-04-25T10:23:29;12.96;63.87
75170;SHT31;63749;49.186;9.222;2023-04-25T10:25:55;12.87;64.79
75170;SHT31;63749;49.186;9.222;2023-04-25T10:28:21;12.82;65.38
75170;SHT31;63749;49.186;9.222;2023-04-25T10:31:08;12.76;68.22
75170;SHT31;63749;49.186;9.222;2023-04-25T10:33:40;12.66;69.96
75170;SHT31;63749;49.186;9.222;2023-04-25T10:36:12;12.68;70.70
75170;SHT31;63749;49.186;9.222;2023-04-25T10:38:39;12.37;71.25
75170;SHT31;63749;49.186;9.222;2023-04-25T10:41:06;12.32;71.21
75170;SHT31;63749;49.186;9.222;2023-04-25T10:43:38;12.01;73.11
75170;SHT31;63749;49.186;9.222;2023-04-25T10:46:17;12.29;72.21
75170;SHT31;63749;49.186;9.222;2023-04-25T10:48:47;12.28;70.75
75170;SHT31;63749;49.186;9.222;2023-04-25T10:53:44;13.21;66.60
75170;SHT31;63749;49.186;9.222;2023-04-25T10:56:19;13.50;65.97
75170;SHT31;63749;49.186;9.222;2023-04-25T10:58:46;14.17;64.06
75170;SHT31;63749;49.186;9.222;2023-04-25T11:01:13;14.53;64.12
75170;SHT31;63749;49.186;9.222;2023-04-25T11:03:43;14.30;63.55
75170;SHT31;63749;49.186;9.222;2023-04-25T11:06:23;13.88;64.91
75170;SHT31;63749;49.186;9.222;2023-04-25T11:08:52;13.57;66.00
75170;SHT31;63749;49.186;9.222;2023-04-25T11:11:18;13.33;67.49
75170;SHT31;63749;49.186;9.222;2023-04-25T11:13:44;13.33;69.10
75170;SHT31;63749;49.186;9.222;2023-04-25T11:16:13;13.41;68.18
75170;SHT31;63749;49.186;9.222;2023-04-25T11:18:41;13.57;67.65
75170;SHT31;63749;49.186;9.222;2023-04-25T11:21:06;13.83;65.63
75170;SHT31;63749;49.186;9.222;2023-04-25T11:23:32;13.83;66.51
75170;SHT31;63749;49.186;9.222;2023-04-25T11:25:57;13.82;66.12
75170;SHT31;63749;49.186;9.222;2023-04-25T11:28:23;13.41;66.12
75170;SHT31;63749;49.186;9.222;2023-04-25T11:30:51;13.07;67.62
75170;SHT31;63749;49.186;9.222;2023-04-25T11:33:17;12.89;67.44
75170;SHT31;63749;49.186;9.222;2023-04-25T11:35:42;12.76;67.96
75170;SHT31;63749;49.186;9.222;2023-04-25T11:38:07;12.75;68.89
75170;SHT31;63749;49.186;9.222;2023-04-25T11:40:33;12.49;70.49
75170;SHT31;63749;49.186;9.222;2023-04-25T11:43:00;12.10;70.37
75170;SHT31;63749;49.186;9.222;2023-04-25T11:45:26;12.05;70.78
75170;SHT31;63749;49.186;9.222;2023-04-25T11:47:52;12.25;69.81
75170;SHT31;63749;49.186;9.222;2023-04-25T11:50:17;12.27;68.46
75170;SHT31;63749;49.186;9.222;2023-04-25T11:55:10;12.28;68.61
75170;SHT31;63749;49.186;9.222;2023-04-25T11:57:37;12.29;68.69
75170;SHT31;63749;49.186;9.222;2023-04-25T12:02:36;12.14;69.17
75170;SHT31;63749;49.186;9.222;2023-04-25T12:05:01;12.21;69.12
75170;SHT31;63749;49.186;9.222;2023-04-25T12:07:31;12.34;65.46
75170;SHT31;63749;49.186;9.222;2023-04-25T12:09:56;12.55;64.08
75170;SHT31;63749;49.186;9.222;2023-04-25T12:12:27;12.75;61.67
75170;SHT31;63749;49.186;9.222;2023-04-25T12:14:52;13.11;60.18
75170;SHT31;63749;49.186;9.222;2023-04-25T12:17:20;13.76;58.56
75170;SHT31;63749;49.186;9.222;2023-04-25T12:19:46;13.78;59.75
75170;SHT31;63749;49.186;9.222;2023-04-25T12:22:22;13.88;57.31
75170;SHT31;63749;49.186;9.222;2023-04-25T12:24:49;14.06;57.52
75170;SHT31;63749;49.186;9.222;2023-04-25T12:27:15;13.96;57.24
75170;SHT31;63749;49.186;9.222;2023-04-25T12:29:55;13.92;56.14
75170;SHT31;63749;49.186;9.222;2023-04-25T12:32:20;13.94;55.26
75170;SHT31;63749;49.186;9.222;2023-04-25T12:34:46;13.95;55.47
75170;SHT31;63749;49.186;9.222;2023-04-25T12:37:11;14.13;55.13
75170;SHT31;63749;49.186;9.222;2023-04-25T12:39:37;14.13;54.60
75170;SHT31;63749;49.186;9.222;2023-04-25T12:42:02;13.79;55.34
75170;SHT31;63749;49.186;9.222;2023-04-25T12:44:28;13.88;56.13
75170;SHT31;63749;49.186;9.222;2023-04-25T12:46:53;14.16;55.84
75170;SHT31;63749;49.186;9.222;2023-04-25T12:49:20;14.36;54.21
75170;SHT31;63749;49.186;9.222;2023-04-25T12:51:45;14.67;53.80
75170;SHT31;63749;49.186;9.222;2023-04-25T12:54:10;14.46;52.99
75170;SHT31;63749;49.186;9.222;2023-04-25T12:56:36;14.59;52.58
75170;SHT31;63749;49.186;9.222;2023-04-25T12:59:02;15.19;51.38
75170;SHT31;63749;49.186;9.222;2023-04-25T13:01:28;15.93;51.14
75170;SHT31;63749;49.186;9.222;2023-04-25T13:03:54;16.15;51.22
75170;SHT31;63749;49.186;9.222;2023-04-25T13:06:20;16.44;50.01
75170;SHT31;63749;49.186;9.222;2023-04-25T13:08:45;18.77;44.91
75170;SHT31;63749;49.186;9.222;2023-04-25T13:11:11;18.61;43.60
75170;SHT31;63749;49.186;9.222;2023-04-25T13:13:37;18.47;44.97
75170;SHT31;63749;49.186;9.222;2023-04-25T13:16:06;17.38;46.87
75170;SHT31;63749;49.186;9.222;2023-04-25T13:18:32;16.26;50.26
75170;SHT31;63749;49.186;9.222;2023-04-25T13:20:58;15.53;52.54
75170;SHT31;63749;49.186;9.222;2023-04-25T13:23:25;15.33;52.28
75170;SHT31;63749;49.186;9.222;2023-04-25T13:25:51;15.05;53.14
75170;SHT31;63749;49.186;9.222;2023-04-25T13:28:16;14.87;53.63
75170;SHT31;63749;49.186;9.222;2023-04-25T13:30:42;14.87;53.35
75170;SHT31;63749;49.186;9.222;2023-04-25T13:33:08;14.56;52.37
75170;SHT31;63749;49.186;9.222;2023-04-25T13:35:35;14.06;52.80
75170;SHT31;63749;49.186;9.222;2023-04-25T13:38:02;16.56;45.55
75170;SHT31;63749;49.186;9.222;2023-04-25T13:40:28;18.54;40.26
75170;SHT31;63749;49.186;9.222;2023-04-25T13:42:53;19.67;36.95
75170;SHT31;63749;49.186;9.222;2023-04-25T13:45:19;20.00;36.73
75170;SHT31;63749;49.186;9.222;2023-04-25T13:47:45;17.95;39.70
75170;SHT31;63749;49.186;9.222;2023-04-25T13:50:10;16.90;41.29
75170;SHT31;63749;49.186;9.222;2023-04-25T13:52:36;16.42;42.90
75170;SHT31;63749;49.186;9.222;2023-04-25T13:55:01;17.85;40.51
75170;SHT31;63749;49.186;9.222;2023-04-25T13:57:30;19.53;37.97
75170;SHT31;63749;49.186;9.222;2023-04-25T13:59:55;18.80;39.62
75170;SHT31;63749;49.186;9.222;2023-04-25T14:02:21;18.02;40.83
75170;SHT31;63749;49.186;9.222;2023-04-25T14:04:46;17.41;42.72
75170;SHT31;63749;49.186;9.222;2023-04-25T14:07:11;17.07;43.04
75170;SHT31;63749;49.186;9.222;2023-04-25T14:09:37;17.81;41.92
75170;SHT31;63749;49.186;9.222;2023-04-25T14:12:02;18.85;39.08
75170;SHT31;63749;49.186;9.222;2023-04-25T14:14:28;18.71;40.54
75170;SHT31;63749;49.186;9.222;2023-04-25T14:16:53;17.89;42.16
75170;SHT31;63749;49.186;9.222;2023-04-25T14:19:22;17.64;43.60
75170;SHT31;63749;49.186;9.222;2023-04-25T14:21:48;16.99;44.92
75170;SHT31;63749;49.186;9.222;2023-04-25T14:24:14;17.95;42.34
75170;SHT31;63749;49.186;9.222;2023-04-25T14:26:39;18.75;40.83
75170;SHT31;63749;49.186;9.222;2023-04-25T14:29:06;18.09;42.66
75170;SHT31;63749;49.186;9.222;2023-04-25T14:31:33;19.56;39.00
75170;SHT31;63749;49.186;9.222;2023-04-25T14:33:59;21.13;35.56
75170;SHT31;63749;49.186;9.222;2023-04-25T14:36:24;21.85;35.13
75170;SHT31;63749;49.186;9.222;2023-04-25T14:38:51;22.68;33.80
75170;SHT31;63749;49.186;9.222;2023-04-25T14:41:17;24.13;31.77
75170;SHT31;63749;49.186;9.222;2023-04-25T14:43:42;24.13;31.57
75170;SHT31;63749;49.186;9.222;2023-04-25T14:46:08;21.78;33.59
75170;SHT31;63749;49.186;9.222;2023-04-25T14:48:34;21.33;34.24
75170;SHT31;63749;49.186;9.222;2023-04-25T14:51:00;22.13;31.44
75170;SHT31;63749;49.186;9.222;2023-04-25T14:53:26;22.32;31.72
75170;SHT31;63749;49.186;9.222;2023-04-25T14:55:52;21.57;32.85
75170;SHT31;63749;49.186;9.222;2023-04-25T14:58:17;21.44;33.74
75170;SHT31;63749;49.186;9.222;2023-04-25T15:00:43;21.51;33.84
75170;SHT31;63749;49.186;9.222;2023-04-25T15:03:09;22.39;31.46
75170;SHT31;63749;49.186;9.222;2023-04-25T15:05:36;22.78;31.53
75170;SHT31;63749;49.186;9.222;2023-04-25T15:08:02;20.73;34.36
75170;SHT31;63749;49.186;9.222;2023-04-25T15:10:28;19.12;37.41
75170;SHT31;63749;49.186;9.222;2023-04-25T15:12:53;18.64;38.58
75170;SHT31;63749;49.186;9.222;2023-04-25T15:15:19;19.55;36.84
75170;SHT31;63749;49.186;9.222;2023-04-25T15:17:45;21.50;33.81
75170;SHT31;63749;49.186;9.222;2023-04-25T15:20:11;21.58;33.77
75170;SHT31;63749;49.186;9.222;2023-04-25T15:22:39;22.86;31.21
75170;SHT31;63749;49.186;9.222;2023-04-25T15:25:05;21.66;32.73
75170;SHT31;63749;49.186;9.222;2023-04-25T15:27:31;19.66;35.71
75170;SHT31;63749;49.186;9.222;2023-04-25T15:29:57;18.17;39.41
75170;SHT31;63749;49.186;9.222;2023-04-25T15:32:22;17.21;40.39
75170;SHT31;63749;49.186;9.222;2023-04-25T15:34:48;16.99;41.34
75170;SHT31;63749;49.186;9.222;2023-04-25T15:37:13;17.07;41.39
75170;SHT31;63749;49.186;9.222;2023-04-25T15:39:39;16.21;42.39
75170;SHT31;63749;49.186;9.222;2023-04-25T15:42:04;15.49;44.64